createdAt,value
2023-03-03T00:00:46.754Z,6.80
2023-03-03T00:03:40.167Z,6.80
2023-03-03T00:06:33.737Z,7.95
2023-03-03T00:09:27.742Z,7.10
2023-03-03T00:12:25.401Z,7.90
2023-03-03T00:15:21.365Z,8.02
2023-03-03T00:18:26.522Z,7.60
2023-03-03T00:21:26.502Z,7.85
2023-03-03T00:24:22.840Z,7.85
2023-03-03T00:27:28.455Z,8.32
2023-03-03T00:30:25.996Z,7.78
2023-03-03T00:33:29.339Z,7.40
2023-03-03T00:36:31.582Z,8.52
2023-03-03T00:39:31.690Z,7.68
2023-03-03T00:42:28.488Z,7.55
2023-03-03T00:45:30.968Z,8.90
2023-03-03T00:48:27.190Z,8.88
2023-03-03T00:51:28.964Z,8.45
2023-03-03T00:54:22.056Z,8.30
2023-03-03T00:57:15.690Z,9.57
2023-03-03T01:00:12.649Z,9.05
2023-03-03T01:03:08.004Z,9.40
2023-03-03T01:06:00.560Z,8.50
2023-03-03T01:08:54.175Z,9.48
2023-03-03T01:11:47.960Z,10.30
2023-03-03T01:14:41.454Z,9.88
2023-03-03T01:17:36.551Z,9.52
2023-03-03T01:20:29.716Z,10.13
2023-03-03T01:23:23.263Z,10.07
2023-03-03T01:26:17.114Z,10.80
2023-03-03T01:29:10.815Z,10.50
2023-03-03T01:32:03.518Z,11.10
2023-03-03T01:34:58.379Z,11.00
2023-03-03T01:37:51.714Z,10.60
2023-03-03T01:40:54.287Z,11.10
2023-03-03T01:43:49.584Z,11.82
2023-03-03T01:46:50.264Z,11.63
2023-03-03T01:49:49.805Z,11.43
2023-03-03T01:52:47.280Z,10.10
2023-03-03T01:55:43.236Z,11.68
2023-03-03T01:58:38.606Z,9.43
2023-03-03T02:01:33.923Z,11.20
2023-03-03T02:04:28.321Z,10.90
2023-03-03T02:07:24.069Z,11.80
2023-03-03T02:10:19.374Z,12.02
2023-03-03T02:13:13.900Z,11.73
2023-03-03T02:16:07.950Z,11.80
2023-03-03T02:19:01.008Z,11.68
2023-03-03T02:21:54.050Z,12.20
2023-03-03T02:24:52.595Z,12.15
2023-03-03T02:27:47.035Z,12.88
2023-03-03T02:30:40.579Z,11.70
2023-03-03T02:33:33.934Z,13.00
2023-03-03T02:36:30.103Z,12.68
2023-03-03T02:39:24.468Z,14.05
2023-03-03T02:42:21.388Z,13.23
2023-03-03T02:45:16.165Z,13.00
2023-03-03T02:48:09.059Z,14.63
2023-03-03T02:51:01.988Z,13.55
2023-03-03T02:53:55.168Z,14.20
2023-03-03T02:56:48.230Z,15.10
2023-03-03T02:59:41.926Z,14.82
2023-03-03T03:02:36.351Z,14.98
2023-03-03T03:05:30.053Z,14.38
2023-03-03T03:08:22.975Z,14.13
2023-03-03T03:11:16.307Z,15.80
2023-03-03T03:14:11.916Z,14.63
2023-03-03T03:17:05.547Z,16.50
2023-03-03T03:19:59.958Z,14.52
2023-03-03T03:22:53.077Z,13.05
2023-03-03T03:25:46.540Z,15.15
2023-03-03T03:28:40.280Z,15.10
2023-03-03T03:31:34.019Z,15.57
2023-03-03T03:34:28.971Z,15.02
2023-03-03T03:37:23.012Z,15.45
2023-03-03T03:40:18.615Z,14.40
2023-03-03T03:43:11.984Z,16.08
2023-03-03T03:46:05.226Z,16.75
2023-03-03T03:48:58.954Z,16.83
2023-03-03T03:51:52.015Z,16.10
2023-03-03T03:54:46.475Z,16.00
2023-03-03T03:57:40.041Z,15.57
2023-03-03T04:00:36.785Z,15.30
2023-03-03T04:03:29.866Z,16.98
2023-03-03T04:06:22.556Z,16.42
2023-03-03T04:09:15.766Z,16.25
2023-03-03T04:12:10.752Z,15.50
2023-03-03T04:15:03.925Z,16.50
2023-03-03T04:17:57.061Z,17.67
2023-03-03T04:20:54.675Z,16.38
2023-03-03T04:23:48.238Z,15.82
2023-03-03T04:26:41.100Z,15.65
2023-03-03T04:29:35.417Z,15.85
2023-03-03T04:32:28.998Z,17.92
2023-03-03T04:35:21.804Z,17.45
2023-03-03T04:38:14.938Z,16.30
2023-03-03T04:41:08.114Z,17.65
2023-03-03T04:44:02.069Z,17.98
2023-03-03T04:46:56.058Z,18.00
2023-03-03T04:49:50.606Z,16.75
2023-03-03T04:52:43.835Z,18.58
2023-03-03T04:55:37.912Z,20.05
2023-03-03T04:58:30.815Z,18.27
2023-03-03T05:01:25.965Z,19.02
2023-03-03T05:04:20.171Z,19.55
2023-03-03T05:07:13.075Z,18.63
2023-03-03T05:10:06.685Z,17.40
2023-03-03T05:13:02.254Z,18.15
2023-03-03T05:15:56.517Z,18.65
2023-03-03T05:18:49.848Z,20.45
2023-03-03T05:21:44.394Z,19.30
2023-03-03T05:24:38.317Z,17.55
2023-03-03T05:27:32.388Z,19.00
2023-03-03T05:30:26.197Z,19.38
2023-03-03T05:33:19.159Z,20.15
2023-03-03T05:36:12.221Z,20.05
2023-03-03T05:39:06.430Z,20.98
2023-03-03T05:42:00.959Z,19.40
2023-03-03T05:44:53.829Z,19.52
2023-03-03T05:47:47.446Z,19.40
2023-03-03T05:50:41.363Z,21.25
2023-03-03T05:53:35.377Z,19.73
2023-03-03T05:56:30.256Z,22.30
2023-03-03T05:59:23.212Z,18.90
2023-03-03T06:02:17.937Z,21.52
2023-03-03T06:05:12.687Z,20.90
2023-03-03T06:08:06.485Z,21.35
2023-03-03T06:11:00.397Z,20.48
2023-03-03T06:13:55.486Z,21.08
2023-03-03T06:16:49.864Z,18.75
2023-03-03T06:19:43.185Z,18.52
2023-03-03T06:22:36.239Z,19.35
2023-03-03T06:25:28.893Z,19.33
2023-03-03T06:28:21.839Z,19.17
2023-03-03T06:31:16.699Z,19.20
2023-03-03T06:34:10.348Z,19.25
2023-03-03T06:37:03.241Z,17.85
2023-03-03T06:39:56.381Z,17.98
2023-03-03T06:42:49.857Z,18.38
2023-03-03T06:45:43.313Z,18.75
2023-03-03T06:48:43.826Z,18.45
2023-03-03T06:51:39.812Z,18.15
2023-03-03T06:54:32.647Z,17.02
2023-03-03T06:57:29.335Z,18.73
2023-03-03T07:00:25.852Z,19.00
2023-03-03T07:03:23.136Z,18.15
2023-03-03T07:06:24.356Z,19.27
2023-03-03T07:09:22.466Z,19.50
2023-03-03T07:12:19.022Z,16.42
2023-03-03T07:15:17.487Z,18.25
2023-03-03T07:18:40.488Z,19.27
2023-03-03T07:21:37.866Z,18.45
2023-03-03T07:24:32.383Z,18.05
2023-03-03T07:27:27.340Z,18.27
2023-03-03T07:30:26.728Z,17.45
2023-03-03T07:33:27.227Z,18.17
2023-03-03T07:36:28.630Z,19.65
2023-03-03T07:39:38.445Z,19.10
2023-03-03T07:42:39.215Z,18.88
2023-03-03T07:45:38.646Z,18.90
2023-03-03T07:48:36.787Z,18.13
2023-03-03T07:51:37.578Z,17.65
2023-03-03T07:54:36.252Z,16.98
2023-03-03T07:57:34.950Z,16.17
2023-03-03T08:01:12.833Z,17.10
2023-03-03T08:04:15.646Z,15.30
2023-03-03T08:07:16.431Z,17.20
2023-03-03T08:10:32.823Z,17.00
2023-03-03T08:13:30.143Z,16.30
2023-03-03T08:16:30.370Z,18.35
2023-03-03T08:19:23.411Z,16.33
2023-03-03T08:22:18.957Z,16.05
2023-03-03T08:25:13.328Z,15.38
2023-03-03T08:28:06.225Z,16.52
2023-03-03T08:31:14.312Z,14.52
2023-03-03T08:34:10.463Z,13.65
2023-03-03T08:37:04.266Z,16.08
2023-03-03T08:39:57.740Z,14.73
2023-03-03T08:42:54.107Z,14.02
2023-03-03T08:45:48.668Z,14.10
2023-03-03T08:48:41.898Z,14.95
2023-03-03T08:51:35.240Z,15.60
2023-03-03T08:54:27.991Z,14.88
2023-03-03T08:57:21.467Z,15.18
2023-03-03T09:00:17.629Z,15.02
2023-03-03T09:03:11.973Z,14.65
2023-03-03T09:06:05.464Z,14.18
2023-03-03T09:08:59.358Z,15.50
2023-03-03T09:11:55.854Z,14.63
2023-03-03T09:14:49.205Z,15.50
2023-03-03T09:17:44.387Z,15.68
2023-03-03T09:20:38.655Z,14.32
2023-03-03T09:23:36.173Z,14.40
2023-03-03T09:26:31.582Z,13.10
2023-03-03T09:29:27.951Z,14.45
2023-03-03T09:32:34.604Z,13.65
2023-03-03T09:35:38.285Z,12.57
2023-03-03T09:38:32.952Z,11.98
2023-03-03T09:41:53.832Z,12.10
2023-03-03T09:45:25.314Z,10.55
2023-03-03T09:48:42.547Z,9.48
2023-03-03T09:52:16.112Z,8.93
2023-03-03T09:55:38.068Z,8.48
2023-03-03T09:58:56.468Z,6.72
2023-03-03T10:02:09.346Z,7.25
2023-03-03T10:05:35.683Z,6.28
2023-03-03T10:08:47.302Z,5.75
2023-03-03T10:11:50.801Z,5.43
2023-03-03T10:15:02.830Z,6.50
2023-03-03T10:18:04.341Z,5.35
2023-03-03T10:21:06.480Z,5.35
2023-03-03T10:24:15.965Z,5.30
2023-03-03T10:27:23.146Z,5.47
2023-03-03T10:30:38.938Z,5.35
2023-03-03T10:37:01.377Z,5.22
2023-03-03T10:40:10.739Z,5.10
2023-03-03T10:43:31.179Z,5.30
2023-03-03T10:46:51.126Z,4.10
2023-03-03T10:50:01.410Z,4.63
2023-03-03T10:52:58.876Z,4.47
2023-03-03T10:56:09.556Z,4.05
2023-03-03T10:59:15.501Z,4.10
2023-03-03T11:02:18.117Z,4.25
2023-03-03T11:05:30.312Z,3.67
2023-03-03T11:08:30.958Z,4.35
2023-03-03T11:11:33.855Z,4.10
2023-03-03T11:14:34.748Z,3.40
2023-03-03T11:17:36.765Z,4.18
2023-03-03T11:20:39.829Z,3.05
2023-03-03T11:23:59.798Z,3.42
2023-03-03T11:27:23.107Z,3.47
2023-03-03T11:30:41.197Z,4.32
2023-03-03T11:33:40.771Z,3.67
2023-03-03T11:36:38.277Z,3.35
2023-03-03T11:39:31.686Z,3.33
2023-03-03T11:42:34.952Z,3.05
2023-03-03T11:45:35.376Z,3.17
2023-03-03T11:48:37.586Z,3.38
2023-03-03T11:51:42.344Z,3.10
2023-03-03T11:54:42.981Z,3.20
2023-03-03T11:57:42.916Z,3.15
2023-03-03T12:00:41.552Z,3.35
2023-03-03T12:03:38.733Z,2.65
2023-03-03T12:06:42.034Z,3.30
2023-03-03T12:09:43.116Z,3.08
2023-03-03T12:12:44.325Z,3.15
2023-03-03T12:15:48.115Z,2.78
2023-03-03T12:18:55.275Z,2.78
2023-03-03T12:22:08.051Z,2.88
2023-03-03T12:25:13.216Z,2.83
2023-03-03T12:28:12.232Z,2.75
2023-03-03T12:31:27.040Z,3.03
2023-03-03T12:34:28.109Z,2.92
2023-03-03T12:37:44.221Z,2.45
2023-03-03T12:40:46.039Z,3.10
2023-03-03T12:43:56.083Z,2.75
2023-03-03T12:46:59.358Z,2.30
2023-03-03T12:50:08.306Z,2.70
2023-03-03T12:53:11.614Z,2.50
2023-03-03T12:56:08.272Z,3.20
2023-03-03T12:59:11.630Z,2.55
2023-03-03T13:02:26.448Z,2.47
2023-03-03T13:05:28.316Z,2.70
2023-03-03T13:08:37.807Z,2.63
2023-03-03T13:11:45.895Z,2.40
2023-03-03T13:14:48.617Z,2.10
2023-03-03T13:17:49.925Z,2.38
2023-03-03T13:20:50.806Z,2.83
2023-03-03T13:23:52.434Z,2.20
2023-03-03T13:26:50.911Z,2.67
2023-03-03T13:29:55.584Z,2.60
2023-03-03T13:32:55.682Z,2.63
2023-03-03T13:35:54.999Z,2.85
2023-03-03T13:38:50.749Z,3.10
2023-03-03T13:41:50.637Z,2.50
2023-03-03T13:44:47.136Z,2.67
2023-03-03T13:47:49.468Z,2.40
2023-03-03T13:50:48.364Z,2.15
2023-03-03T13:53:48.478Z,2.97
2023-03-03T13:57:06.785Z,2.75
2023-03-03T14:00:14.181Z,2.13
2023-03-03T14:03:24.840Z,2.28
2023-03-03T14:06:20.902Z,2.50
2023-03-03T14:09:33.145Z,2.50
2023-03-03T14:12:38.417Z,2.58
2023-03-03T14:15:36.717Z,2.40
2023-03-03T14:18:35.067Z,2.55
2023-03-03T14:21:36.672Z,2.70
2023-03-03T14:24:29.718Z,2.58
2023-03-03T14:27:26.887Z,2.08
2023-03-03T14:30:31.328Z,2.55
2023-03-03T14:33:32.300Z,2.45
2023-03-03T14:36:30.558Z,2.53
2023-03-03T14:39:34.478Z,2.20
2023-03-03T14:42:39.286Z,2.10
2023-03-03T14:45:36.085Z,2.25
2023-03-03T14:48:32.690Z,2.17
2023-03-03T14:51:28.900Z,2.72
2023-03-03T14:54:26.370Z,2.08
2023-03-03T14:57:21.596Z,2.20
2023-03-03T15:00:36.219Z,2.13
2023-03-03T15:03:30.849Z,2.20
2023-03-03T15:06:35.342Z,2.30
2023-03-03T15:09:36.853Z,2.05
2023-03-03T15:12:37.335Z,2.13
2023-03-03T15:15:30.717Z,2.22
2023-03-03T15:18:23.581Z,2.28
2023-03-03T15:21:23.562Z,2.20
2023-03-03T15:24:25.110Z,2.65
2023-03-03T15:27:24.397Z,2.17
2023-03-03T15:30:25.922Z,2.20
2023-03-03T15:33:30.374Z,2.30
2023-03-03T15:36:35.602Z,2.05
2023-03-03T15:39:36.350Z,2.30
2023-03-03T15:42:39.140Z,2.03
2023-03-03T15:45:37.006Z,2.33
2023-03-03T15:48:46.199Z,1.95
2023-03-03T15:52:03.102Z,2.50
2023-03-03T15:55:28.065Z,1.90
2023-03-03T15:58:45.049Z,2.08
2023-03-03T16:01:45.296Z,2.20
2023-03-03T16:04:44.996Z,2.03
2023-03-03T16:07:49.462Z,2.17
2023-03-03T16:10:53.404Z,2.08
2023-03-03T16:14:02.604Z,2.40
2023-03-03T16:17:04.959Z,2.13
2023-03-03T16:20:09.052Z,2.10
2023-03-03T16:23:18.287Z,1.70
2023-03-03T16:26:32.030Z,2.00
2023-03-03T16:29:43.593Z,2.05
2023-03-03T16:32:42.716Z,1.90
2023-03-03T16:35:40.404Z,2.05
2023-03-03T16:38:39.752Z,2.10
2023-03-03T16:41:44.290Z,1.60
2023-03-03T16:44:48.433Z,1.98
2023-03-03T16:48:00.595Z,1.98
2023-03-03T16:51:12.301Z,1.80
2023-03-03T16:54:13.623Z,2.10
2023-03-03T16:57:17.377Z,1.55
2023-03-03T17:00:15.594Z,1.67
2023-03-03T17:03:48.747Z,1.60
2023-03-03T17:06:49.601Z,1.80
2023-03-03T17:09:54.808Z,1.90
2023-03-03T17:13:16.601Z,1.90
2023-03-03T17:16:15.667Z,2.15
2023-03-03T17:19:21.695Z,1.92
2023-03-03T17:22:21.012Z,1.95
2023-03-03T17:25:22.698Z,1.80
2023-03-03T17:28:29.204Z,1.90
2023-03-03T17:31:30.837Z,1.63
2023-03-03T17:34:40.429Z,1.60
2023-03-03T17:37:39.508Z,1.63
2023-03-03T17:40:47.675Z,1.65
2023-03-03T17:43:52.565Z,1.80
2023-03-03T17:46:49.532Z,1.60
2023-03-03T17:50:05.076Z,2.05
2023-03-03T17:53:19.364Z,2.10
2023-03-03T17:56:22.477Z,1.67
2023-03-03T17:59:37.551Z,1.90
2023-03-03T18:03:06.690Z,1.60
2023-03-03T18:06:14.837Z,2.03
2023-03-03T18:09:26.070Z,1.90
2023-03-03T18:12:31.238Z,1.60
2023-03-03T18:15:39.033Z,2.00
2023-03-03T18:18:58.818Z,1.77
2023-03-03T18:21:59.081Z,1.48
2023-03-03T18:25:00.885Z,1.60
2023-03-03T18:28:21.185Z,1.50
2023-03-03T18:31:25.178Z,1.77
2023-03-03T18:34:37.733Z,1.77
2023-03-03T18:37:41.489Z,1.73
2023-03-03T18:40:35.836Z,1.65
2023-03-03T18:43:59.504Z,1.90
2023-03-03T18:46:58.668Z,1.70
2023-03-03T18:50:04.287Z,1.80
2023-03-03T18:53:19.002Z,1.70
2023-03-03T18:56:12.939Z,1.50
2023-03-03T18:59:10.484Z,1.23
2023-03-03T19:02:19.240Z,1.58
2023-03-03T19:05:23.245Z,1.75
2023-03-03T19:08:22.820Z,1.65
2023-03-03T19:11:37.285Z,1.23
2023-03-03T19:14:38.189Z,1.70
2023-03-03T19:17:50.277Z,1.73
2023-03-03T19:20:48.047Z,1.52
2023-03-03T19:23:51.641Z,1.48
2023-03-03T19:27:16.416Z,1.48
2023-03-03T19:30:38.063Z,1.65
2023-03-03T19:33:53.995Z,1.50
2023-03-03T19:37:05.766Z,1.55
2023-03-03T19:40:04.353Z,1.40
2023-03-03T19:43:09.824Z,1.60
2023-03-03T19:46:25.265Z,1.40
2023-03-03T19:49:29.141Z,1.50
2023-03-03T19:52:31.376Z,1.30
2023-03-03T19:55:29.041Z,1.70
2023-03-03T19:58:31.563Z,1.25
2023-03-03T20:01:30.787Z,1.52
2023-03-03T20:04:50.687Z,1.25
2023-03-03T20:07:50.781Z,1.63
2023-03-03T20:10:50.205Z,1.25
2023-03-03T20:13:54.702Z,1.63
2023-03-03T20:16:51.608Z,1.70
2023-03-03T20:19:53.038Z,1.60
2023-03-03T20:22:56.279Z,1.50
2023-03-03T20:25:54.129Z,1.70
2023-03-03T20:29:35.749Z,1.80
2023-03-03T20:32:45.085Z,1.77
2023-03-03T20:35:47.456Z,1.50
2023-03-03T20:38:48.658Z,1.52
2023-03-03T20:41:58.786Z,1.50
2023-03-03T20:45:06.249Z,1.42
2023-03-03T20:48:14.054Z,1.75
2023-03-03T20:51:12.302Z,1.58
2023-03-03T20:54:18.985Z,1.40
2023-03-03T20:57:20.461Z,1.50
2023-03-03T21:00:20.922Z,1.55
2023-03-03T21:03:20.469Z,1.58
2023-03-03T21:06:16.291Z,1.63
2023-03-03T21:09:22.552Z,1.50
2023-03-03T21:12:28.929Z,1.88
2023-03-03T21:15:31.546Z,1.63
2023-03-03T21:18:27.441Z,1.40
2023-03-03T21:21:20.635Z,1.70
2023-03-03T21:24:19.579Z,1.40
2023-03-03T21:27:26.538Z,1.55
2023-03-03T21:30:20.513Z,1.33
2023-03-03T21:33:41.355Z,1.83
2023-03-03T21:36:47.777Z,1.30
2023-03-03T21:39:43.620Z,1.55
2023-03-03T21:42:42.110Z,1.38
2023-03-03T21:45:36.578Z,1.42
2023-03-03T21:48:29.766Z,1.35
2023-03-03T21:51:25.473Z,1.33
2023-03-03T21:54:19.123Z,1.70
2023-03-03T21:57:13.513Z,1.33
2023-03-03T22:00:09.207Z,1.50
2023-03-03T22:03:02.784Z,1.20
2023-03-03T22:05:56.245Z,1.50
2023-03-03T22:08:51.233Z,1.60
2023-03-03T22:11:44.484Z,1.30
2023-03-03T22:14:37.830Z,1.33
2023-03-03T22:17:30.968Z,1.50
2023-03-03T22:20:23.640Z,2.17
2023-03-03T22:23:18.811Z,1.40
2023-03-03T22:26:13.283Z,1.45
2023-03-03T22:29:07.081Z,1.40
2023-03-03T22:32:00.224Z,1.42
2023-03-03T22:34:53.918Z,1.30
2023-03-03T22:37:46.863Z,1.67
2023-03-03T22:40:39.885Z,1.23
2023-03-03T22:43:34.563Z,1.58
2023-03-03T22:46:28.171Z,1.60
2023-03-03T22:49:21.870Z,1.60
2023-03-03T22:52:15.351Z,1.50
2023-03-03T22:55:09.965Z,1.30
2023-03-03T22:58:02.970Z,1.17
2023-03-03T23:00:57.399Z,1.52
2023-03-03T23:03:51.187Z,0.98
2023-03-03T23:06:45.005Z,1.40
2023-03-03T23:09:37.831Z,1.13
2023-03-03T23:12:31.189Z,1.27
2023-03-03T23:15:24.902Z,1.23
2023-03-03T23:18:19.124Z,1.27
2023-03-03T23:21:11.996Z,1.40
2023-03-03T23:24:05.151Z,1.23
2023-03-03T23:27:00.537Z,1.40
2023-03-03T23:29:54.779Z,1.10
2023-03-03T23:32:49.131Z,1.30
2023-03-03T23:35:45.350Z,1.40
2023-03-03T23:38:40.761Z,1.40
2023-03-03T23:41:36.049Z,1.40
2023-03-03T23:44:28.954Z,1.70
2023-03-03T23:47:22.085Z,1.83
2023-03-03T23:50:15.529Z,1.77
2023-03-03T23:53:10.575Z,1.65
2023-03-03T23:56:04.464Z,3.45
2023-03-03T23:58:57.894Z,4.00
